sensor_id;sensor_type;location;lat;lon;timestamp;temperature;humidity
67275;DHT22;55463;52.324;5.122;2022-07-29T00:00:56;16.44;71.86
67275;DHT22;55463;52.324;5.122;2022-07-29T00:03:21;16.42;72.05
67275;DHT22;55463;52.324;5.122;2022-07-29T00:05:47;16.42;71.79
67275;DHT22;55463;52.324;5.122;2022-07-29T00:08:12;16.44;72.22
67275;DHT22;55463;52.324;5.122;2022-07-29T00:10:38;16.29;72.36
67275;DHT22;55463;52.324;5.122;2022-07-29T00:13:03;16.38;71.62
67275;DHT22;55463;52.324;5.122;2022-07-29T00:15:29;16.35;71.87
67275;DHT22;55463;52.324;5.122;2022-07-29T00:17:54;16.28;72.13
67275;DHT22;55463;52.324;5.122;2022-07-29T00:20:19;16.32;72.32
67275;DHT22;55463;52.324;5.122;2022-07-29T00:22:45;16.25;72.49
67275;DHT22;55463;52.324;5.122;2022-07-29T00:25:12;16.32;72.29
67275;DHT22;55463;52.324;5.122;2022-07-29T00:27:37;16.26;72.14
67275;DHT22;55463;52.324;5.122;2022-07-29T00:30:04;16.32;72.27
67275;DHT22;55463;52.324;5.122;2022-07-29T00:32:30;16.22;72.52
67275;DHT22;55463;52.324;5.122;2022-07-29T00:34:55;16.22;72.18
67275;DHT22;55463;52.324;5.122;2022-07-29T00:37:39;16.26;71.85
67275;DHT22;55463;52.324;5.122;2022-07-29T00:40:05;16.24;72.19
67275;DHT22;55463;52.324;5.122;2022-07-29T00:42:41;16.07;72.74
67275;DHT22;55463;52.324;5.122;2022-07-29T00:45:07;16.07;72.99
67275;DHT22;55463;52.324;5.122;2022-07-29T00:47:32;16.15;72.54
67275;DHT22;55463;52.324;5.122;2022-07-29T00:49:57;16.17;72.06
67275;DHT22;55463;52.324;5.122;2022-07-29T00:52:23;16.12;72.38
67275;DHT22;55463;52.324;5.122;2022-07-29T00:54:48;16.01;73.08
67275;DHT22;55463;52.324;5.122;2022-07-29T00:57:14;16.04;73.07
67275;DHT22;55463;52.324;5.122;2022-07-29T00:59:39;16.01;72.97
67275;DHT22;55463;52.324;5.122;2022-07-29T01:02:05;16.11;72.57
67275;DHT22;55463;52.324;5.122;2022-07-29T01:04:31;16.03;72.74
67275;DHT22;55463;52.324;5.122;2022-07-29T01:06:56;16.05;72.64
67275;DHT22;55463;52.324;5.122;2022-07-29T01:09:22;15.98;72.96
67275;DHT22;55463;52.324;5.122;2022-07-29T01:11:48;16.00;72.97
67275;DHT22;55463;52.324;5.122;2022-07-29T01:14:15;15.98;72.81
67275;DHT22;55463;52.324;5.122;2022-07-29T01:17:57;15.89;72.96
67275;DHT22;55463;52.324;5.122;2022-07-29T01:31:06;15.83;73.58
67275;DHT22;55463;52.324;5.122;2022-07-29T01:33:38;15.93;73.40
67275;DHT22;55463;52.324;5.122;2022-07-29T01:36:29;15.76;73.63
67275;DHT22;55463;52.324;5.122;2022-07-29T01:39:19;15.90;73.54
67275;DHT22;55463;52.324;5.122;2022-07-29T01:42:05;15.80;73.86
67275;DHT22;55463;52.324;5.122;2022-07-29T01:44:48;15.74;74.40
67275;DHT22;55463;52.324;5.122;2022-07-29T01:47:19;15.71;74.19
67275;DHT22;55463;52.324;5.122;2022-07-29T01:49:48;15.67;74.80
67275;DHT22;55463;52.324;5.122;2022-07-29T01:52:21;15.62;74.58
67275;DHT22;55463;52.324;5.122;2022-07-29T01:54:55;15.67;74.25
67275;DHT22;55463;52.324;5.122;2022-07-29T01:57:26;15.62;74.44
67275;DHT22;55463;52.324;5.122;2022-07-29T01:59:54;15.59;74.81
67275;DHT22;55463;52.324;5.122;2022-07-29T02:02:20;15.62;74.58
67275;DHT22;55463;52.324;5.122;2022-07-29T02:04:47;15.62;74.38
67275;DHT22;55463;52.324;5.122;2022-07-29T02:07:18;15.53;74.70
67275;DHT22;55463;52.324;5.122;2022-07-29T02:09:46;15.52;74.96
67275;DHT22;55463;52.324;5.122;2022-07-29T02:12:14;15.46;75.18
67275;DHT22;55463;52.324;5.122;2022-07-29T02:14:44;15.52;75.11
67275;DHT22;55463;52.324;5.122;2022-07-29T02:17:12;15.50;75.03
67275;DHT22;55463;52.324;5.122;2022-07-29T02:19:38;15.50;74.85
67275;DHT22;55463;52.324;5.122;2022-07-29T02:22:05;15.49;75.04
67275;DHT22;55463;52.324;5.122;2022-07-29T02:24:32;15.59;74.54
67275;DHT22;55463;52.324;5.122;2022-07-29T02:27:00;15.48;74.75
67275;DHT22;55463;52.324;5.122;2022-07-29T02:29:28;15.46;74.74
67275;DHT22;55463;52.324;5.122;2022-07-29T02:31:56;15.48;74.55
67275;DHT22;55463;52.324;5.122;2022-07-29T02:34:23;15.45;74.87
67275;DHT22;55463;52.324;5.122;2022-07-29T02:36:49;15.41;75.37
67275;DHT22;55463;52.324;5.122;2022-07-29T02:39:15;15.36;75.46
67275;DHT22;55463;52.324;5.122;2022-07-29T02:41:44;15.35;75.86
67275;DHT22;55463;52.324;5.122;2022-07-29T02:44:13;15.34;76.49
67275;DHT22;55463;52.324;5.122;2022-07-29T02:46:49;15.34;76.33
67275;DHT22;55463;52.324;5.122;2022-07-29T02:49:34;15.38;76.13
67275;DHT22;55463;52.324;5.122;2022-07-29T02:52:03;15.38;76.38
67275;DHT22;55463;52.324;5.122;2022-07-29T02:59:57;15.38;76.08
67275;DHT22;55463;52.324;5.122;2022-07-29T03:02:25;15.31;76.60
67275;DHT22;55463;52.324;5.122;2022-07-29T03:04:52;15.30;76.68
67275;DHT22;55463;52.324;5.122;2022-07-29T03:07:20;15.35;76.34
67275;DHT22;55463;52.324;5.122;2022-07-29T03:09:46;15.34;76.49
67275;DHT22;55463;52.324;5.122;2022-07-29T03:12:13;15.36;76.40
67275;DHT22;55463;52.324;5.122;2022-07-29T03:14:39;15.38;76.31
67275;DHT22;55463;52.324;5.122;2022-07-29T03:17:05;15.34;76.19
67275;DHT22;55463;52.324;5.122;2022-07-29T03:19:31;15.31;76.80
67275;DHT22;55463;52.324;5.122;2022-07-29T03:21:58;15.35;76.82
67275;DHT22;55463;52.324;5.122;2022-07-29T03:24:32;15.35;76.44
67275;DHT22;55463;52.324;5.122;2022-07-29T03:26:58;15.31;76.60
67275;DHT22;55463;52.324;5.122;2022-07-29T03:29:24;15.30;76.50
67275;DHT22;55463;52.324;5.122;2022-07-29T03:31:50;15.32;76.79
67275;DHT22;55463;52.324;5.122;2022-07-29T03:34:15;15.27;77.00
67275;DHT22;55463;52.324;5.122;2022-07-29T03:36:41;15.28;76.93
67275;DHT22;55463;52.324;5.122;2022-07-29T03:39:07;15.28;76.45
67275;DHT22;55463;52.324;5.122;2022-07-29T03:41:36;15.28;76.16
67275;DHT22;55463;52.324;5.122;2022-07-29T03:44:04;15.24;76.76
67275;DHT22;55463;52.324;5.122;2022-07-29T03:46:31;15.27;76.79
67275;DHT22;55463;52.324;5.122;2022-07-29T03:49:00;15.28;76.68
67275;DHT22;55463;52.324;5.122;2022-07-29T03:51:28;15.25;76.45
67275;DHT22;55463;52.324;5.122;2022-07-29T03:53:53;15.32;76.72
67275;DHT22;55463;52.324;5.122;2022-07-29T03:56:21;15.27;76.85
67275;DHT22;55463;52.324;5.122;2022-07-29T03:58:51;15.22;77.00
67275;DHT22;55463;52.324;5.122;2022-07-29T04:01:18;15.32;76.56
67275;DHT22;55463;52.324;5.122;2022-07-29T04:03:44;15.25;76.68
67275;DHT22;55463;52.324;5.122;2022-07-29T04:06:12;15.28;76.61
67275;DHT22;55463;52.324;5.122;2022-07-29T04:08:38;15.27;76.43
67275;DHT22;55463;52.324;5.122;2022-07-29T04:11:04;15.24;76.83
67275;DHT22;55463;52.324;5.122;2022-07-29T04:13:30;15.22;77.37
67275;DHT22;55463;52.324;5.122;2022-07-29T04:15:56;15.22;77.18
67275;DHT22;55463;52.324;5.122;2022-07-29T04:18:22;15.24;77.03
67275;DHT22;55463;52.324;5.122;2022-07-29T04:20:48;15.22;77.68
67275;DHT22;55463;52.324;5.122;2022-07-29T04:23:13;15.22;77.42
67275;DHT22;55463;52.324;5.122;2022-07-29T04:25:41;15.20;77.91
67275;DHT22;55463;52.324;5.122;2022-07-29T04:28:08;15.14;77.81
67275;DHT22;55463;52.324;5.122;2022-07-29T04:30:35;15.22;77.36
67275;DHT22;55463;52.324;5.122;2022-07-29T04:33:02;15.17;77.39
67275;DHT22;55463;52.324;5.122;2022-07-29T04:35:29;15.21;77.24
67275;DHT22;55463;52.324;5.122;2022-07-29T04:37:54;15.18;77.22
67275;DHT22;55463;52.324;5.122;2022-07-29T04:40:20;15.21;77.46
67275;DHT22;55463;52.324;5.122;2022-07-29T04:42:45;15.25;77.34
67275;DHT22;55463;52.324;5.122;2022-07-29T04:45:10;15.27;76.96
67275;DHT22;55463;52.324;5.122;2022-07-29T04:47:36;15.25;77.25
67275;DHT22;55463;52.324;5.122;2022-07-29T04:50:01;15.22;77.17
67275;DHT22;55463;52.324;5.122;2022-07-29T04:52:27;15.27;77.29
67275;DHT22;55463;52.324;5.122;2022-07-29T04:54:52;15.28;77.45
67275;DHT22;55463;52.324;5.122;2022-07-29T04:57:18;15.30;77.70
67275;DHT22;55463;52.324;5.122;2022-07-29T04:59:43;15.39;76.53
67275;DHT22;55463;52.324;5.122;2022-07-29T05:02:09;15.35;77.25
67275;DHT22;55463;52.324;5.122;2022-07-29T05:04:34;15.34;77.32
67275;DHT22;55463;52.324;5.122;2022-07-29T05:06:59;15.28;77.62
67275;DHT22;55463;52.324;5.122;2022-07-29T05:09:25;15.31;77.54
67275;DHT22;55463;52.324;5.122;2022-07-29T05:11:50;15.34;77.64
67275;DHT22;55463;52.324;5.122;2022-07-29T05:14:15;15.31;77.53
67275;DHT22;55463;52.324;5.122;2022-07-29T05:16:41;15.34;77.53
67275;DHT22;55463;52.324;5.122;2022-07-29T05:19:07;15.41;77.53
67275;DHT22;55463;52.324;5.122;2022-07-29T05:21:32;15.34;77.52
67275;DHT22;55463;52.324;5.122;2022-07-29T05:23:58;15.36;77.05
67275;DHT22;55463;52.324;5.122;2022-07-29T05:26:23;15.31;77.75
67275;DHT22;55463;52.324;5.122;2022-07-29T05:28:48;15.35;77.26
67275;DHT22;55463;52.324;5.122;2022-07-29T05:31:14;15.49;77.29
67275;DHT22;55463;52.324;5.122;2022-07-29T05:33:40;15.62;77.17
67275;DHT22;55463;52.324;5.122;2022-07-29T05:36:06;15.60;76.44
67275;DHT22;55463;52.324;5.122;2022-07-29T05:38:33;15.69;76.49
67275;DHT22;55463;52.324;5.122;2022-07-29T05:40:58;15.70;76.66
67275;DHT22;55463;52.324;5.122;2022-07-29T05:43:25;15.80;76.46
67275;DHT22;55463;52.324;5.122;2022-07-29T05:45:50;15.80;76.34
67275;DHT22;55463;52.324;5.122;2022-07-29T05:48:16;15.86;76.63
67275;DHT22;55463;52.324;5.122;2022-07-29T05:50:41;16.01;76.23
67275;DHT22;55463;52.324;5.122;2022-07-29T05:53:06;15.98;76.04
67275;DHT22;55463;52.324;5.122;2022-07-29T05:55:32;16.00;76.77
67275;DHT22;55463;52.324;5.122;2022-07-29T05:57:57;16.11;75.21
67275;DHT22;55463;52.324;5.122;2022-07-29T06:00:22;16.17;75.91
67275;DHT22;55463;52.324;5.122;2022-07-29T06:02:48;16.20;74.93
67275;DHT22;55463;52.324;5.122;2022-07-29T06:05:13;16.42;75.51
67275;DHT22;55463;52.324;5.122;2022-07-29T06:07:40;16.62;72.86
67275;DHT22;55463;52.324;5.122;2022-07-29T06:10:06;16.60;73.42
67275;DHT22;55463;52.324;5.122;2022-07-29T06:12:31;16.65;73.80
67275;DHT22;55463;52.324;5.122;2022-07-29T06:14:56;16.63;74.13
67275;DHT22;55463;52.324;5.122;2022-07-29T06:17:22;16.59;74.26
67275;DHT22;55463;52.324;5.122;2022-07-29T06:19:48;16.57;73.43
67275;DHT22;55463;52.324;5.122;2022-07-29T06:22:15;16.62;73.92
67275;DHT22;55463;52.324;5.122;2022-07-29T06:24:41;16.55;73.58
67275;DHT22;55463;52.324;5.122;2022-07-29T06:27:11;16.62;74.20
67275;DHT22;55463;52.324;5.122;2022-07-29T06:29:37;16.56;74.50
67275;DHT22;55463;52.324;5.122;2022-07-29T06:32:03;16.67;73.96
67275;DHT22;55463;52.324;5.122;2022-07-29T06:34:28;16.60;74.05
67275;DHT22;55463;52.324;5.122;2022-07-29T06:36:54;16.57;73.75
67275;DHT22;55463;52.324;5.122;2022-07-29T06:39:19;16.67;73.89
67275;DHT22;55463;52.324;5.122;2022-07-29T06:41:48;16.66;73.55
67275;DHT22;55463;52.324;5.122;2022-07-29T06:44:16;16.62;73.63
67275;DHT22;55463;52.324;5.122;2022-07-29T06:46:41;16.59;74.18
67275;DHT22;55463;52.324;5.122;2022-07-29T06:49:07;16.52;74.21
67275;DHT22;55463;52.324;5.122;2022-07-29T06:51:33;16.53;74.47
67275;DHT22;55463;52.324;5.122;2022-07-29T06:53:59;16.65;74.03
67275;DHT22;55463;52.324;5.122;2022-07-29T06:56:25;16.60;74.51
67275;DHT22;55463;52.324;5.122;2022-07-29T06:58:51;16.59;74.38
67275;DHT22;55463;52.324;5.122;2022-07-29T07:01:16;16.80;74.95
67275;DHT22;55463;52.324;5.122;2022-07-29T07:03:41;17.65;73.98
67275;DHT22;55463;52.324;5.122;2022-07-29T07:06:07;17.56;71.43
67275;DHT22;55463;52.324;5.122;2022-07-29T07:08:35;17.59;71.44
67275;DHT22;55463;52.324;5.122;2022-07-29T07:11:00;18.07;69.59
67275;DHT22;55463;52.324;5.122;2022-07-29T07:13:26;18.11;68.81
67275;DHT22;55463;52.324;5.122;2022-07-29T07:15:51;18.53;68.85
67275;DHT22;55463;52.324;5.122;2022-07-29T07:18:18;19.29;68.15
67275;DHT22;55463;52.324;5.122;2022-07-29T07:20:43;19.80;65.06
67275;DHT22;55463;52.324;5.122;2022-07-29T07:23:08;20.08;62.12
67275;DHT22;55463;52.324;5.122;2022-07-29T07:25:34;19.80;63.70
67275;DHT22;55463;52.324;5.122;2022-07-29T07:27:59;20.46;64.87
67275;DHT22;55463;52.324;5.122;2022-07-29T07:30:25;21.15;60.84
67275;DHT22;55463;52.324;5.122;2022-07-29T07:32:50;21.41;61.95
67275;DHT22;55463;52.324;5.122;2022-07-29T07:35:16;21.63;60.43
67275;DHT22;55463;52.324;5.122;2022-07-29T07:37:41;22.01;59.26
67275;DHT22;55463;52.324;5.122;2022-07-29T07:40:09;22.56;59.36
67275;DHT22;55463;52.324;5.122;2022-07-29T07:42:35;22.60;57.65
67275;DHT22;55463;52.324;5.122;2022-07-29T07:45:00;22.79;56.45
67275;DHT22;55463;52.324;5.122;2022-07-29T07:47:26;22.96;54.73
67275;DHT22;55463;52.324;5.122;2022-07-29T07:49:52;22.99;57.12
67275;DHT22;55463;52.324;5.122;2022-07-29T07:52:19;23.59;53.63
67275;DHT22;55463;52.324;5.122;2022-07-29T07:54:45;23.56;53.08
67275;DHT22;55463;52.324;5.122;2022-07-29T07:57:11;23.66;54.07
67275;DHT22;55463;52.324;5.122;2022-07-29T07:59:37;23.52;53.48
67275;DHT22;55463;52.324;5.122;2022-07-29T08:02:03;23.18;55.32
67275;DHT22;55463;52.324;5.122;2022-07-29T08:04:29;23.18;54.95
67275;DHT22;55463;52.324;5.122;2022-07-29T08:06:55;23.28;55.80
67275;DHT22;55463;52.324;5.122;2022-07-29T08:09:22;23.01;54.86
67275;DHT22;55463;52.324;5.122;2022-07-29T08:11:47;23.04;56.30
67275;DHT22;55463;52.324;5.122;2022-07-29T08:14:12;22.30;54.85
67275;DHT22;55463;52.324;5.122;2022-07-29T08:16:39;21.90;55.64
67275;DHT22;55463;52.324;5.122;2022-07-29T08:19:05;21.34;57.94
67275;DHT22;55463;52.324;5.122;2022-07-29T08:21:31;21.80;58.31
67275;DHT22;55463;52.324;5.122;2022-07-29T08:23:56;22.00;57.09
67275;DHT22;55463;52.324;5.122;2022-07-29T08:26:41;22.32;58.70
67275;DHT22;55463;52.324;5.122;2022-07-29T08:29:07;22.99;57.82
67275;DHT22;55463;52.324;5.122;2022-07-29T08:31:32;23.12;55.52
67275;DHT22;55463;52.324;5.122;2022-07-29T08:33:58;22.97;56.07
67275;DHT22;55463;52.324;5.122;2022-07-29T08:36:25;22.39;57.49
67275;DHT22;55463;52.324;5.122;2022-07-29T08:38:50;22.62;58.23
67275;DHT22;55463;52.324;5.122;2022-07-29T08:41:17;22.55;57.86
67275;DHT22;55463;52.324;5.122;2022-07-29T08:43:44;21.96;56.28
67275;DHT22;55463;52.324;5.122;2022-07-29T08:46:09;22.22;59.21
67275;DHT22;55463;52.324;5.122;2022-07-29T08:48:36;21.82;60.11
67275;DHT22;55463;52.324;5.122;2022-07-29T08:51:02;22.03;59.57
67275;DHT22;55463;52.324;5.122;2022-07-29T08:53:28;21.93;59.81
67275;DHT22;55463;52.324;5.122;2022-07-29T08:55:54;22.42;59.26
67275;DHT22;55463;52.324;5.122;2022-07-29T08:58:21;22.97;59.92
67275;DHT22;55463;52.324;5.122;2022-07-29T09:00:52;22.84;59.30
67275;DHT22;55463;52.324;5.122;2022-07-29T09:03:20;22.79;59.85
67275;DHT22;55463;52.324;5.122;2022-07-29T09:05:46;23.01;59.51
67275;DHT22;55463;52.324;5.122;2022-07-29T09:08:13;22.87;59.32
67275;DHT22;55463;52.324;5.122;2022-07-29T09:10:39;22.73;59.23
67275;DHT22;55463;52.324;5.122;2022-07-29T09:13:04;22.63;60.83
67275;DHT22;55463;52.324;5.122;2022-07-29T09:15:30;22.41;61.99
67275;DHT22;55463;52.324;5.122;2022-07-29T09:17:55;22.42;61.90
67275;DHT22;55463;52.324;5.122;2022-07-29T09:20:23;22.76;61.84
67275;DHT22;55463;52.324;5.122;2022-07-29T09:22:49;22.48;61.59
67275;DHT22;55463;52.324;5.122;2022-07-29T09:25:40;22.67;61.19
67275;DHT22;55463;52.324;5.122;2022-07-29T09:30:32;23.54;59.51
67275;DHT22;55463;52.324;5.122;2022-07-29T09:33:01;23.54;59.63
67275;DHT22;55463;52.324;5.122;2022-07-29T09:35:28;23.22;57.98
67275;DHT22;55463;52.324;5.122;2022-07-29T09:37:54;23.20;58.87
67275;DHT22;55463;52.324;5.122;2022-07-29T09:40:22;23.93;58.09
67275;DHT22;55463;52.324;5.122;2022-07-29T09:42:48;24.72;57.08
67275;DHT22;55463;52.324;5.122;2022-07-29T09:45:30;24.93;55.32
67275;DHT22;55463;52.324;5.122;2022-07-29T09:47:55;24.79;55.93
67275;DHT22;55463;52.324;5.122;2022-07-29T09:50:40;24.86;55.34
67275;DHT22;55463;52.324;5.122;2022-07-29T09:53:06;25.21;55.94
67275;DHT22;55463;52.324;5.122;2022-07-29T09:55:46;25.59;54.29
67275;DHT22;55463;52.324;5.122;2022-07-29T09:58:19;25.34;51.92
67275;DHT22;55463;52.324;5.122;2022-07-29T10:00:46;25.88;54.64
67275;DHT22;55463;52.324;5.122;2022-07-29T10:03:12;25.96;54.07
67275;DHT22;55463;52.324;5.122;2022-07-29T10:05:38;25.08;53.73
67275;DHT22;55463;52.324;5.122;2022-07-29T10:08:04;24.61;53.83
67275;DHT22;55463;52.324;5.122;2022-07-29T10:10:32;24.61;55.28
67275;DHT22;55463;52.324;5.122;2022-07-29T10:13:13;24.38;54.08
67275;DHT22;55463;52.324;5.122;2022-07-29T10:15:41;25.06;54.04
67275;DHT22;55463;52.324;5.122;2022-07-29T10:18:12;25.17;54.34
67275;DHT22;55463;52.324;5.122;2022-07-29T10:20:39;25.31;53.89
67275;DHT22;55463;52.324;5.122;2022-07-29T10:23:05;25.35;52.70
67275;DHT22;55463;52.324;5.122;2022-07-29T10:25:30;25.07;53.88
67275;DHT22;55463;52.324;5.122;2022-07-29T10:27:56;25.17;54.95
67275;DHT22;55463;52.324;5.122;2022-07-29T10:30:23;25.83;54.53
67275;DHT22;55463;52.324;5.122;2022-07-29T10:32:51;25.44;52.97
67275;DHT22;55463;52.324;5.122;2022-07-29T10:35:31;25.33;54.70
67275;DHT22;55463;52.324;5.122;2022-07-29T10:38:15;25.35;52.76
67275;DHT22;55463;52.324;5.122;2022-07-29T10:41:32;25.79;54.01
67275;DHT22;55463;52.324;5.122;2022-07-29T10:44:15;26.31;53.19
67275;DHT22;55463;52.324;5.122;2022-07-29T10:46:42;25.72;52.63
67275;DHT22;55463;52.324;5.122;2022-07-29T10:49:12;26.08;53.15
67275;DHT22;55463;52.324;5.122;2022-07-29T10:57:30;25.14;54.85
67275;DHT22;55463;52.324;5.122;2022-07-29T11:05:12;24.17;56.32
67275;DHT22;55463;52.324;5.122;2022-07-29T11:08:01;24.39;56.50
67275;DHT22;55463;52.324;5.122;2022-07-29T11:10:24;24.97;55.91
67275;DHT22;55463;52.324;5.122;2022-07-29T11:12:49;24.52;56.20
67275;DHT22;55463;52.324;5.122;2022-07-29T11:15:19;25.04;54.53
67275;DHT22;55463;52.324;5.122;2022-07-29T11:23:01;25.00;55.18
67275;DHT22;55463;52.324;5.122;2022-07-29T11:25:26;24.82;56.62
67275;DHT22;55463;52.324;5.122;2022-07-29T11:27:54;25.18;57.07
67275;DHT22;55463;52.324;5.122;2022-07-29T11:30:53;25.02;56.31
67275;DHT22;55463;52.324;5.122;2022-07-29T11:33:29;25.65;55.81
67275;DHT22;55463;52.324;5.122;2022-07-29T11:36:12;26.00;54.89
67275;DHT22;55463;52.324;5.122;2022-07-29T11:38:38;25.61;55.46
67275;DHT22;55463;52.324;5.122;2022-07-29T11:41:28;25.61;54.41
67275;DHT22;55463;52.324;5.122;2022-07-29T11:43:59;25.45;54.33
67275;DHT22;55463;52.324;5.122;2022-07-29T11:46:47;25.25;55.56
67275;DHT22;55463;52.324;5.122;2022-07-29T11:49:21;24.91;56.01
67275;DHT22;55463;52.324;5.122;2022-07-29T11:51:56;24.99;54.81
67275;DHT22;55463;52.324;5.122;2022-07-29T11:54:26;25.17;55.16
67275;DHT22;55463;52.324;5.122;2022-07-29T11:56:57;25.24;54.66
67275;DHT22;55463;52.324;5.122;2022-07-29T11:59:24;25.65;54.85
67275;DHT22;55463;52.324;5.122;2022-07-29T12:04:19;25.10;53.89
67275;DHT22;55463;52.324;5.122;2022-07-29T12:06:51;25.58;54.49
67275;DHT22;55463;52.324;5.122;2022-07-29T12:09:17;25.80;53.66
67275;DHT22;55463;52.324;5.122;2022-07-29T12:11:43;25.44;53.45
67275;DHT22;55463;52.324;5.122;2022-07-29T12:14:09;24.71;53.65
67275;DHT22;55463;52.324;5.122;2022-07-29T12:16:35;25.44;55.15
67275;DHT22;55463;52.324;5.122;2022-07-29T12:19:03;25.34;53.57
67275;DHT22;55463;52.324;5.122;2022-07-29T12:21:42;25.65;54.28
67275;DHT22;55463;52.324;5.122;2022-07-29T12:24:08;25.52;54.46
67275;DHT22;55463;52.324;5.122;2022-07-29T12:26:33;25.62;54.40
67275;DHT22;55463;52.324;5.122;2022-07-29T12:28:58;25.78;54.30
67275;DHT22;55463;52.324;5.122;2022-07-29T12:31:24;26.28;54.06
67275;DHT22;55463;52.324;5.122;2022-07-29T12:33:53;26.23;53.02
67275;DHT22;55463;52.324;5.122;2022-07-29T12:36:19;26.10;53.24
67275;DHT22;55463;52.324;5.122;2022-07-29T12:38:47;25.97;53.51
67275;DHT22;55463;52.324;5.122;2022-07-29T12:41:12;26.33;54.07
67275;DHT22;55463;52.324;5.122;2022-07-29T12:43:38;26.20;51.88
67275;DHT22;55463;52.324;5.122;2022-07-29T12:46:16;25.92;54.09
67275;DHT22;55463;52.324;5.122;2022-07-29T12:48:43;26.51;53.80
67275;DHT22;55463;52.324;5.122;2022-07-29T12:51:09;26.71;53.07
67275;DHT22;55463;52.324;5.122;2022-07-29T12:53:35;26.18;52.69
67275;DHT22;55463;52.324;5.122;2022-07-29T12:56:02;26.59;53.07
67275;DHT22;55463;52.324;5.122;2022-07-29T12:58:40;26.78;53.93
67275;DHT22;55463;52.324;5.122;2022-07-29T13:01:07;27.06;52.99
67275;DHT22;55463;52.324;5.122;2022-07-29T13:03:47;27.10;52.63
67275;DHT22;55463;52.324;5.122;2022-07-29T13:06:39;26.38;51.15
67275;DHT22;55463;52.324;5.122;2022-07-29T13:09:13;26.68;52.28
67275;DHT22;55463;52.324;5.122;2022-07-29T13:11:44;26.25;55.19
67275;DHT22;55463;52.324;5.122;2022-07-29T13:14:12;25.80;53.07
67275;DHT22;55463;52.324;5.122;2022-07-29T13:19:39;25.58;52.49
67275;DHT22;55463;52.324;5.122;2022-07-29T13:22:06;25.82;54.52
67275;DHT22;55463;52.324;5.122;2022-07-29T13:24:32;25.76;52.75
67275;DHT22;55463;52.324;5.122;2022-07-29T13:26:58;25.82;53.07
67275;DHT22;55463;52.324;5.122;2022-07-29T13:29:23;25.49;54.96
67275;DHT22;55463;52.324;5.122;2022-07-29T13:31:48;25.46;54.96
67275;DHT22;55463;52.324;5.122;2022-07-29T13:34:14;26.00;53.06
67275;DHT22;55463;52.324;5.122;2022-07-29T13:36:39;26.07;54.40
67275;DHT22;55463;52.324;5.122;2022-07-29T13:39:04;26.12;54.24
67275;DHT22;55463;52.324;5.122;2022-07-29T13:41:30;25.96;54.43
67275;DHT22;55463;52.324;5.122;2022-07-29T13:43:55;26.13;52.86
67275;DHT22;55463;52.324;5.122;2022-07-29T13:46:21;26.33;52.32
67275;DHT22;55463;52.324;5.122;2022-07-29T13:48:46;26.23;50.79
67275;DHT22;55463;52.324;5.122;2022-07-29T13:51:12;25.37;50.96
67275;DHT22;55463;52.324;5.122;2022-07-29T13:53:37;25.73;51.39
67275;DHT22;55463;52.324;5.122;2022-07-29T13:56:03;26.03;53.16
67275;DHT22;55463;52.324;5.122;2022-07-29T13:58:31;26.40;51.53
67275;DHT22;55463;52.324;5.122;2022-07-29T14:00:56;26.24;51.58
67275;DHT22;55463;52.324;5.122;2022-07-29T14:03:22;26.06;51.34
67275;DHT22;55463;52.324;5.122;2022-07-29T14:05:47;26.33;52.60
67275;DHT22;55463;52.324;5.122;2022-07-29T14:08:13;26.18;50.90
67275;DHT22;55463;52.324;5.122;2022-07-29T14:10:39;26.07;51.40
67275;DHT22;55463;52.324;5.122;2022-07-29T14:13:04;26.34;53.17
67275;DHT22;55463;52.324;5.122;2022-07-29T14:15:30;26.18;51.85
67275;DHT22;55463;52.324;5.122;2022-07-29T14:17:55;26.37;52.35
67275;DHT22;55463;52.324;5.122;2022-07-29T14:20:20;26.12;52.18
67275;DHT22;55463;52.324;5.122;2022-07-29T14:22:46;26.25;51.79
67275;DHT22;55463;52.324;5.122;2022-07-29T14:25:11;26.28;52.56
67275;DHT22;55463;52.324;5.122;2022-07-29T14:27:36;26.67;52.98
67275;DHT22;55463;52.324;5.122;2022-07-29T14:30:02;26.62;51.43
67275;DHT22;55463;52.324;5.122;2022-07-29T14:32:27;26.52;50.95
67275;DHT22;55463;52.324;5.122;2022-07-29T14:34:56;26.40;53.77
67275;DHT22;55463;52.324;5.122;2022-07-29T14:37:21;26.72;53.11
67275;DHT22;55463;52.324;5.122;2022-07-29T14:39:46;26.85;52.98
67275;DHT22;55463;52.324;5.122;2022-07-29T14:42:12;26.79;50.60
67275;DHT22;55463;52.324;5.122;2022-07-29T14:44:38;27.06;52.10
67275;DHT22;55463;52.324;5.122;2022-07-29T14:47:03;26.90;51.70
67275;DHT22;55463;52.324;5.122;2022-07-29T14:49:29;26.67;49.94
67275;DHT22;55463;52.324;5.122;2022-07-29T14:51:54;26.61;51.95
67275;DHT22;55463;52.324;5.122;2022-07-29T14:54:20;26.10;50.50
67275;DHT22;55463;52.324;5.122;2022-07-29T14:56:45;26.07;50.70
67275;DHT22;55463;52.324;5.122;2022-07-29T14:59:11;25.42;49.28
67275;DHT22;55463;52.324;5.122;2022-07-29T15:01:37;25.78;51.29
67275;DHT22;55463;52.324;5.122;2022-07-29T15:04:04;25.93;49.83
67275;DHT22;55463;52.324;5.122;2022-07-29T15:06:29;25.61;48.18
67275;DHT22;55463;52.324;5.122;2022-07-29T15:09:21;25.75;48.72
67275;DHT22;55463;52.324;5.122;2022-07-29T15:11:53;25.65;49.62
67275;DHT22;55463;52.324;5.122;2022-07-29T15:14:52;25.97;49.17
67275;DHT22;55463;52.324;5.122;2022-07-29T15:17:50;26.25;50.64
67275;DHT22;55463;52.324;5.122;2022-07-29T15:20:30;26.42;49.93
67275;DHT22;55463;52.324;5.122;2022-07-29T15:22:58;25.92;45.82
67275;DHT22;55463;52.324;5.122;2022-07-29T15:25:35;26.01;49.86
67275;DHT22;55463;52.324;5.122;2022-07-29T15:28:02;25.79;50.67
67275;DHT22;55463;52.324;5.122;2022-07-29T15:30:32;25.69;49.58
67275;DHT22;55463;52.324;5.122;2022-07-29T15:32:58;25.78;50.37
67275;DHT22;55463;52.324;5.122;2022-07-29T15:35:24;25.39;49.87
67275;DHT22;55463;52.324;5.122;2022-07-29T15:37:49;25.07;50.73
67275;DHT22;55463;52.324;5.122;2022-07-29T15:40:15;25.39;50.68
67275;DHT22;55463;52.324;5.122;2022-07-29T15:42:40;25.46;51.81
67275;DHT22;55463;52.324;5.122;2022-07-29T15:45:06;25.52;50.24
67275;DHT22;55463;52.324;5.122;2022-07-29T15:47:31;25.30;50.10
67275;DHT22;55463;52.324;5.122;2022-07-29T15:49:57;25.27;52.28
67275;DHT22;55463;52.324;5.122;2022-07-29T15:52:22;25.20;51.36
67275;DHT22;55463;52.324;5.122;2022-07-29T15:54:48;25.45;50.68
67275;DHT22;55463;52.324;5.122;2022-07-29T15:57:13;25.48;51.84
67275;DHT22;55463;52.324;5.122;2022-07-29T15:59:39;25.63;51.70
67275;DHT22;55463;52.324;5.122;2022-07-29T16:02:05;25.78;52.87
67275;DHT22;55463;52.324;5.122;2022-07-29T16:04:31;25.55;53.63
67275;DHT22;55463;52.324;5.122;2022-07-29T16:06:56;25.72;50.36
67275;DHT22;55463;52.324;5.122;2022-07-29T16:09:22;25.49;52.20
67275;DHT22;55463;52.324;5.122;2022-07-29T16:11:48;25.39;52.15
67275;DHT22;55463;52.324;5.122;2022-07-29T16:14:17;25.44;52.53
67275;DHT22;55463;52.324;5.122;2022-07-29T16:16:43;25.14;52.53